createdAt,value
2024-05-09T00:00:44.067Z,45.92
2024-05-09T00:03:47.325Z,45.65
2024-05-09T00:06:50.411Z,45.61
2024-05-09T00:09:53.206Z,46.12
2024-05-09T00:12:55.991Z,46.55
2024-05-09T00:15:59.647Z,46.57
2024-05-09T00:19:02.667Z,46.69
2024-05-09T00:22:05.828Z,46.25
2024-05-09T00:25:08.985Z,46.36
2024-05-09T00:28:12.904Z,46.24
2024-05-09T00:31:16.569Z,46.08
2024-05-09T00:34:19.591Z,46.83
2024-05-09T00:37:22.737Z,47.00
2024-05-09T00:40:35.499Z,46.87
2024-05-09T00:43:42.417Z,46.35
2024-05-09T00:46:45.425Z,46.45
2024-05-09T00:49:48.773Z,45.43
2024-05-09T00:52:54.378Z,44.77
2024-05-09T00:55:58.508Z,44.74
2024-05-09T00:59:01.503Z,44.44
2024-05-09T01:02:05.036Z,44.66
2024-05-09T01:05:08.161Z,44.64
2024-05-09T01:08:12.175Z,44.64
2024-05-09T01:11:17.953Z,45.17
2024-05-09T01:14:21.041Z,45.91
2024-05-09T01:17:25.075Z,45.55
2024-05-09T01:20:37.482Z,44.75
2024-05-09T01:23:45.032Z,44.63
2024-05-09T01:26:48.483Z,44.97
2024-05-09T01:29:51.847Z,44.80
2024-05-09T01:32:55.110Z,44.51
2024-05-09T01:35:58.316Z,43.84
2024-05-09T01:39:01.373Z,44.20
2024-05-09T01:42:04.769Z,43.27
2024-05-09T01:45:09.359Z,42.89
2024-05-09T01:48:12.600Z,43.40
2024-05-09T01:51:15.911Z,44.36
2024-05-09T01:54:19.220Z,44.99
2024-05-09T01:57:22.288Z,46.86
2024-05-09T02:00:36.950Z,45.71
2024-05-09T02:03:46.843Z,45.17
2024-05-09T02:06:49.814Z,45.19
2024-05-09T02:09:53.416Z,44.98
2024-05-09T02:12:56.273Z,44.54
2024-05-09T02:15:59.060Z,44.26
2024-05-09T02:19:02.029Z,44.57
2024-05-09T02:22:04.983Z,43.57
2024-05-09T02:25:07.861Z,43.64
2024-05-09T02:28:10.813Z,43.92
2024-05-09T02:31:13.807Z,43.79
2024-05-09T02:34:16.545Z,43.77
2024-05-09T02:37:19.527Z,44.27
2024-05-09T02:40:29.152Z,43.75
2024-05-09T02:43:39.084Z,43.74
2024-05-09T02:46:41.907Z,43.85
2024-05-09T02:49:44.856Z,44.25
2024-05-09T02:52:47.708Z,44.73
2024-05-09T02:55:51.173Z,44.52
2024-05-09T02:58:54.131Z,44.98
2024-05-09T03:01:57.080Z,44.90
2024-05-09T03:05:00.816Z,45.12
2024-05-09T03:08:04.346Z,44.86
2024-05-09T03:11:07.484Z,44.32
2024-05-09T03:14:10.419Z,44.05
2024-05-09T03:17:13.418Z,43.55
2024-05-09T03:20:23.359Z,44.75
2024-05-09T03:23:27.366Z,46.61
2024-05-09T03:26:30.420Z,46.65
2024-05-09T03:29:33.591Z,46.63
2024-05-09T03:32:36.722Z,47.41
2024-05-09T03:35:39.647Z,48.51
2024-05-09T03:38:42.582Z,47.46
2024-05-09T03:41:45.623Z,46.82
2024-05-09T03:44:48.619Z,47.05
2024-05-09T03:47:52.482Z,46.63
2024-05-09T03:50:55.830Z,45.92
2024-05-09T03:53:59.005Z,45.62
2024-05-09T03:57:02.347Z,45.72
2024-05-09T04:00:11.896Z,46.04
2024-05-09T04:03:20.898Z,46.04
2024-05-09T04:06:25.092Z,46.08
2024-05-09T04:09:27.946Z,44.73
2024-05-09T04:12:30.943Z,44.01
2024-05-09T04:15:34.003Z,43.38
2024-05-09T04:18:37.376Z,42.48
2024-05-09T04:21:40.326Z,42.27
2024-05-09T04:24:43.438Z,41.63
2024-05-09T04:27:46.343Z,41.60
2024-05-09T04:30:53.069Z,41.54
2024-05-09T04:33:56.086Z,41.70
2024-05-09T04:36:59.116Z,41.83
2024-05-09T04:40:02.279Z,41.35
2024-05-09T04:43:06.507Z,41.89
2024-05-09T04:46:09.942Z,42.15
2024-05-09T04:49:13.161Z,43.00
2024-05-09T04:52:16.138Z,42.80
2024-05-09T04:55:18.972Z,42.75
2024-05-09T04:58:22.374Z,42.60
2024-05-09T05:01:25.633Z,42.10
2024-05-09T05:04:29.933Z,42.05
2024-05-09T05:07:32.774Z,42.67
2024-05-09T05:10:36.895Z,42.02
2024-05-09T05:13:41.700Z,42.24
2024-05-09T05:16:44.951Z,43.07
2024-05-09T05:19:49.915Z,42.67
2024-05-09T05:22:53.284Z,43.39
2024-05-09T05:25:57.509Z,42.92
2024-05-09T05:29:01.678Z,43.34
2024-05-09T05:32:05.603Z,42.27
2024-05-09T05:35:09.857Z,42.14
2024-05-09T05:38:13.499Z,42.49
2024-05-09T05:41:16.819Z,43.01
2024-05-09T05:44:24.226Z,42.60
2024-05-09T05:47:30.713Z,42.06
2024-05-09T05:50:38.476Z,41.02
2024-05-09T05:53:44.533Z,41.78
2024-05-09T05:56:47.698Z,41.37
2024-05-09T05:59:53.324Z,41.05
2024-05-09T06:02:56.723Z,39.80
2024-05-09T06:06:03.014Z,39.64
2024-05-09T06:09:06.483Z,39.12
2024-05-09T06:12:09.706Z,38.51
2024-05-09T06:15:13.815Z,38.09
2024-05-09T06:18:17.147Z,37.83
2024-05-09T06:21:21.221Z,37.28
2024-05-09T06:24:24.305Z,37.30
2024-05-09T06:27:27.856Z,36.10
2024-05-09T06:30:42.461Z,35.99
2024-05-09T06:33:46.556Z,35.99
2024-05-09T06:36:49.794Z,36.14
2024-05-09T06:39:52.994Z,35.51
2024-05-09T06:42:57.840Z,35.74
2024-05-09T06:46:03.036Z,35.63
2024-05-09T06:49:08.667Z,36.46
2024-05-09T06:52:14.787Z,34.99
2024-05-09T06:55:26.963Z,35.88
2024-05-09T06:58:55.558Z,35.39
2024-05-09T07:02:03.982Z,36.06
2024-05-09T07:05:07.301Z,35.02
2024-05-09T07:08:14.654Z,35.23
2024-05-09T07:11:19.032Z,34.86
2024-05-09T07:14:25.609Z,34.88
2024-05-09T07:17:31.386Z,34.09
2024-05-09T07:20:35.394Z,34.33
2024-05-09T07:23:39.031Z,33.80
2024-05-09T07:26:42.483Z,35.14
2024-05-09T07:29:45.988Z,33.45
2024-05-09T07:32:50.770Z,32.94
2024-05-09T07:36:03.166Z,32.73
2024-05-09T07:39:10.335Z,34.55
2024-05-09T07:42:55.765Z,34.43
2024-05-09T07:46:51.821Z,33.29
2024-05-09T07:53:33.832Z,32.57
2024-05-09T07:56:13.214Z,32.49
2024-05-09T07:59:17.583Z,33.29
2024-05-09T08:02:21.079Z,31.81
2024-05-09T08:05:28.872Z,31.46
2024-05-09T08:08:35.468Z,32.51
2024-05-09T08:11:41.752Z,32.80
2024-05-09T08:14:45.459Z,32.87
2024-05-09T08:17:50.530Z,33.27
2024-05-09T08:20:54.150Z,31.77
2024-05-09T08:24:01.502Z,32.36
2024-05-09T08:27:05.954Z,32.22
2024-05-09T08:30:18.415Z,32.03
2024-05-09T08:33:37.626Z,32.28
2024-05-09T08:36:42.829Z,33.27
2024-05-09T08:39:47.895Z,33.02
2024-05-09T08:42:56.519Z,33.34
2024-05-09T08:46:02.502Z,32.83
2024-05-09T08:49:07.034Z,32.34
2024-05-09T08:52:14.226Z,32.69
2024-05-09T08:55:17.535Z,32.33
2024-05-09T08:58:24.315Z,33.02
2024-05-09T09:01:32.070Z,32.76
2024-05-09T09:04:39.287Z,32.62
2024-05-09T09:07:48.650Z,32.38
2024-05-09T09:10:54.441Z,31.91
2024-05-09T09:13:57.808Z,32.44
2024-05-09T09:17:00.943Z,32.06
2024-05-09T09:20:04.479Z,31.71
2024-05-09T09:23:08.909Z,31.08
2024-05-09T09:26:16.186Z,31.35
2024-05-09T09:29:21.008Z,32.10
2024-05-09T09:32:29.164Z,32.48
2024-05-09T09:35:32.318Z,32.54
2024-05-09T09:38:38.069Z,31.45
2024-05-09T09:41:46.871Z,31.89
2024-05-09T09:45:01.894Z,32.16
2024-05-09T09:48:14.978Z,32.61
2024-05-09T09:51:18.969Z,32.06
2024-05-09T09:54:29.835Z,32.29
2024-05-09T09:57:43.976Z,32.77
2024-05-09T10:00:47.386Z,31.84
2024-05-09T10:03:50.707Z,32.55
2024-05-09T10:06:59.598Z,32.59
2024-05-09T10:10:03.337Z,31.71
2024-05-09T10:13:08.084Z,30.91
2024-05-09T10:16:22.373Z,30.50
2024-05-09T10:19:26.844Z,30.82
2024-05-09T10:22:31.144Z,30.80
2024-05-09T10:25:35.547Z,31.48
2024-05-09T10:28:43.387Z,31.98
2024-05-09T10:31:48.374Z,30.99
2024-05-09T10:35:00.927Z,31.10
2024-05-09T10:38:07.270Z,31.50
2024-05-09T10:41:11.360Z,32.23
2024-05-09T10:44:16.076Z,31.78
2024-05-09T10:47:23.138Z,31.08
2024-05-09T10:50:29.229Z,31.64
2024-05-09T10:53:44.824Z,30.60
2024-05-09T10:56:56.821Z,31.37
2024-05-09T11:00:00.530Z,30.30
2024-05-09T11:03:04.448Z,29.52
2024-05-09T11:06:09.875Z,29.52
2024-05-09T11:09:13.555Z,29.71
2024-05-09T11:12:16.648Z,29.95
2024-05-09T11:15:19.456Z,30.04
2024-05-09T11:18:28.165Z,30.34
2024-05-09T11:21:32.879Z,29.71
2024-05-09T11:24:36.080Z,29.71
2024-05-09T11:27:42.605Z,29.60
2024-05-09T11:30:46.119Z,29.58
2024-05-09T11:33:49.717Z,29.25
2024-05-09T11:36:53.040Z,29.69
2024-05-09T11:39:56.382Z,29.36
2024-05-09T11:42:59.676Z,28.44
2024-05-09T11:46:03.941Z,29.37
2024-05-09T11:49:16.499Z,28.84
2024-05-09T11:52:19.724Z,27.98
2024-05-09T11:55:27.387Z,28.40
2024-05-09T11:58:34.869Z,27.35
2024-05-09T12:01:38.234Z,27.34
2024-05-09T12:04:41.570Z,27.40
2024-05-09T12:07:44.576Z,28.13
2024-05-09T12:10:47.839Z,27.65
2024-05-09T12:13:50.836Z,28.11
2024-05-09T12:16:54.105Z,26.82
2024-05-09T12:19:57.301Z,27.71
2024-05-09T12:23:02.308Z,27.36
2024-05-09T12:26:05.457Z,28.19
2024-05-09T12:29:08.707Z,27.71
2024-05-09T12:32:11.845Z,26.41
2024-05-09T12:35:15.058Z,27.14
2024-05-09T12:38:18.620Z,26.15
2024-05-09T12:41:21.617Z,25.45
2024-05-09T12:44:24.404Z,25.70
2024-05-09T12:47:27.994Z,25.99
2024-05-09T12:50:33.669Z,26.35
2024-05-09T12:53:37.588Z,25.66
2024-05-09T12:56:41.825Z,25.00
2024-05-09T12:59:44.847Z,25.50
2024-05-09T13:02:47.948Z,24.24
2024-05-09T13:05:52.111Z,26.15
2024-05-09T13:08:55.184Z,26.73
2024-05-09T13:11:58.340Z,25.84
2024-05-09T13:15:01.292Z,25.92
2024-05-09T13:18:05.316Z,25.36
2024-05-09T13:21:08.940Z,24.90
2024-05-09T13:24:11.790Z,24.46
2024-05-09T13:27:14.793Z,25.37
2024-05-09T13:30:25.934Z,24.39
2024-05-09T13:33:33.671Z,23.66
2024-05-09T13:36:36.799Z,23.40
2024-05-09T13:39:39.701Z,22.95
2024-05-09T13:42:42.558Z,23.02
2024-05-09T13:45:45.962Z,22.17
2024-05-09T13:48:49.383Z,22.30
2024-05-09T13:51:52.553Z,22.53
2024-05-09T13:54:55.742Z,23.76
2024-05-09T13:57:59.287Z,22.18
2024-05-09T14:01:02.690Z,22.94
2024-05-09T14:04:06.340Z,21.96
2024-05-09T14:07:10.792Z,21.03
2024-05-09T14:10:22.519Z,21.55
2024-05-09T14:13:31.957Z,21.39
2024-05-09T14:16:40.122Z,20.27
2024-05-09T14:19:43.396Z,19.69
2024-05-09T14:22:46.540Z,19.59
2024-05-09T14:25:53.172Z,19.93
2024-05-09T14:28:56.456Z,20.79
2024-05-09T14:32:00.043Z,20.86
2024-05-09T14:35:04.167Z,20.16
2024-05-09T14:38:10.284Z,21.13
2024-05-09T14:41:13.903Z,21.38
2024-05-09T14:44:16.979Z,21.45
2024-05-09T14:47:20.181Z,22.22
2024-05-09T14:50:32.317Z,21.66
2024-05-09T14:53:39.899Z,22.93
2024-05-09T14:56:44.031Z,21.28
2024-05-09T14:59:46.991Z,21.86
2024-05-09T15:02:50.034Z,22.12
2024-05-09T15:05:53.335Z,22.24
2024-05-09T15:08:57.642Z,22.87
2024-05-09T15:12:00.637Z,23.27
2024-05-09T15:15:04.318Z,23.07
2024-05-09T15:18:07.724Z,23.01
2024-05-09T15:21:11.395Z,23.12
2024-05-09T15:24:15.102Z,23.37
2024-05-09T15:27:20.104Z,23.74
2024-05-09T15:33:31.219Z,23.42
2024-05-09T15:36:34.690Z,22.85
2024-05-09T15:39:38.072Z,22.27
2024-05-09T15:42:43.037Z,22.77
2024-05-09T15:45:46.462Z,23.15
2024-05-09T15:48:49.813Z,23.17
2024-05-09T15:51:52.935Z,22.92
2024-05-09T15:54:56.077Z,23.40
2024-05-09T15:58:04.145Z,23.64
2024-05-09T16:01:07.823Z,23.45
2024-05-09T16:04:11.739Z,23.68
2024-05-09T16:07:15.666Z,23.88
2024-05-09T16:10:23.229Z,23.64
2024-05-09T16:13:29.299Z,23.72
2024-05-09T16:16:32.660Z,23.78
2024-05-09T16:19:35.707Z,24.07
2024-05-09T16:22:38.589Z,24.39
2024-05-09T16:25:46.316Z,24.31
2024-05-09T16:28:49.441Z,24.34
2024-05-09T16:31:52.529Z,24.05
2024-05-09T16:34:55.571Z,24.81
2024-05-09T16:37:58.721Z,24.07
2024-05-09T16:41:01.747Z,23.94
2024-05-09T16:44:04.780Z,22.70
2024-05-09T16:47:08.096Z,23.48
2024-05-09T16:50:12.925Z,23.81
2024-05-09T16:56:24.038Z,24.64
2024-05-09T16:59:27.231Z,24.68
2024-05-09T17:02:31.040Z,25.39
2024-05-09T17:05:34.466Z,25.22
2024-05-09T17:08:38.094Z,25.62
2024-05-09T17:11:41.145Z,25.80
2024-05-09T17:14:44.159Z,26.24
2024-05-09T17:17:47.929Z,26.54
2024-05-09T17:20:52.612Z,26.31
2024-05-09T17:23:56.043Z,26.47
2024-05-09T17:27:00.353Z,26.00
2024-05-09T17:30:06.352Z,26.38
2024-05-09T17:33:12.150Z,26.57
2024-05-09T17:36:15.990Z,26.42
2024-05-09T17:39:18.888Z,27.09
2024-05-09T17:42:21.758Z,26.72
2024-05-09T17:45:24.753Z,26.89
2024-05-09T17:48:27.807Z,27.10
2024-05-09T17:51:34.266Z,27.40
2024-05-09T17:54:37.323Z,27.67
2024-05-09T17:57:40.445Z,27.97
2024-05-09T18:00:43.709Z,27.82
2024-05-09T18:03:48.657Z,27.90
2024-05-09T18:06:51.783Z,28.17
2024-05-09T18:09:54.800Z,28.14
2024-05-09T18:12:57.943Z,28.42
2024-05-09T18:16:01.681Z,28.74
2024-05-09T18:19:04.983Z,28.97
2024-05-09T18:22:08.666Z,28.92
2024-05-09T18:25:11.763Z,29.50
2024-05-09T18:28:16.814Z,29.29
2024-05-09T18:31:21.173Z,29.35
2024-05-09T18:34:24.372Z,29.70
2024-05-09T18:37:27.607Z,29.75
2024-05-09T18:40:34.933Z,29.56
2024-05-09T18:43:45.048Z,30.11
2024-05-09T18:46:51.428Z,30.09
2024-05-09T18:49:54.325Z,29.87
2024-05-09T18:52:57.446Z,30.31
2024-05-09T18:56:00.922Z,30.29
2024-05-09T18:59:04.390Z,30.66
2024-05-09T19:02:07.635Z,30.09
2024-05-09T19:05:11.283Z,30.04
2024-05-09T19:08:15.941Z,29.85
2024-05-09T19:11:19.044Z,29.85
2024-05-09T19:14:22.529Z,29.67
2024-05-09T19:17:28.456Z,29.75
2024-05-09T19:20:35.236Z,29.49
2024-05-09T19:23:46.839Z,29.94
2024-05-09T19:26:56.171Z,30.22
2024-05-09T19:29:59.207Z,29.94
2024-05-09T19:33:02.580Z,30.32
2024-05-09T19:36:06.990Z,30.34
2024-05-09T19:39:10.078Z,30.58
2024-05-09T19:42:13.441Z,30.44
2024-05-09T19:45:16.750Z,30.55
2024-05-09T19:48:21.510Z,30.43
2024-05-09T19:51:24.737Z,30.71
2024-05-09T19:54:28.116Z,30.53
2024-05-09T19:57:31.323Z,30.37
2024-05-09T20:00:36.998Z,30.62
2024-05-09T20:03:42.296Z,31.03
2024-05-09T20:06:46.493Z,30.81
2024-05-09T20:09:50.586Z,31.08
2024-05-09T20:12:54.092Z,30.72
2024-05-09T20:15:57.548Z,30.98
2024-05-09T20:19:01.679Z,30.76
2024-05-09T20:22:05.679Z,31.04
2024-05-09T20:25:09.422Z,30.47
2024-05-09T20:28:13.499Z,30.49
2024-05-09T20:31:21.263Z,29.95
2024-05-09T20:34:24.507Z,30.07
2024-05-09T20:37:27.904Z,29.72
2024-05-09T20:40:35.084Z,29.76
2024-05-09T20:43:41.252Z,29.85
2024-05-09T20:46:45.278Z,29.58
2024-05-09T20:49:48.370Z,29.73
2024-05-09T20:52:51.282Z,29.68
2024-05-09T20:55:54.686Z,29.27
2024-05-09T20:58:58.179Z,29.67
2024-05-09T21:02:01.128Z,29.42
2024-05-09T21:05:04.877Z,28.95
2024-05-09T21:08:08.212Z,28.66
2024-05-09T21:11:11.623Z,28.81
2024-05-09T21:14:14.466Z,29.26
2024-05-09T21:17:17.426Z,29.02
2024-05-09T21:20:24.228Z,29.05
2024-05-09T21:23:32.993Z,28.60
2024-05-09T21:26:37.432Z,29.23
2024-05-09T21:29:41.236Z,29.16
2024-05-09T21:32:44.172Z,29.37
2024-05-09T21:35:47.076Z,28.92
2024-05-09T21:38:50.034Z,29.07
2024-05-09T21:41:53.618Z,29.48
2024-05-09T21:44:56.492Z,29.33
2024-05-09T21:47:59.687Z,28.72
2024-05-09T21:51:02.724Z,29.18
2024-05-09T21:54:05.724Z,29.20
2024-05-09T21:57:10.224Z,28.98
2024-05-09T22:00:28.256Z,29.42
2024-05-09T22:03:38.294Z,32.07
2024-05-09T22:06:41.396Z,36.17
2024-05-09T22:09:45.584Z,35.62
2024-05-09T22:12:48.740Z,36.11
2024-05-09T22:15:51.798Z,37.38
2024-05-09T22:18:54.855Z,36.90
2024-05-09T22:21:58.040Z,36.69
2024-05-09T22:25:01.089Z,38.51
2024-05-09T22:28:05.148Z,38.47
2024-05-09T22:31:09.089Z,37.69
2024-05-09T22:34:12.164Z,38.76
2024-05-09T22:37:15.247Z,39.88
2024-05-09T22:40:28.248Z,40.48
2024-05-09T22:43:40.232Z,40.52
2024-05-09T22:46:43.468Z,41.62
2024-05-09T22:49:46.410Z,41.51
2024-05-09T22:52:49.286Z,41.02
2024-05-09T22:55:52.274Z,43.56
2024-05-09T22:58:56.175Z,42.20
2024-05-09T23:01:59.342Z,42.07
2024-05-09T23:05:02.865Z,42.09
2024-05-09T23:08:05.983Z,42.61
2024-05-09T23:11:09.487Z,42.55
2024-05-09T23:14:12.566Z,42.28
2024-05-09T23:17:15.481Z,42.61
2024-05-09T23:20:29.614Z,42.71
2024-05-09T23:23:39.661Z,43.31
2024-05-09T23:26:43.611Z,43.55
2024-05-09T23:29:47.516Z,43.55
2024-05-09T23:32:50.504Z,44.08
2024-05-09T23:35:53.598Z,44.22
2024-05-09T23:38:56.538Z,44.66
2024-05-09T23:41:59.474Z,45.57
2024-05-09T23:45:02.490Z,46.24
2024-05-09T23:48:06.467Z,48.44
2024-05-09T23:51:09.575Z,48.34
2024-05-09T23:54:12.483Z,48.35
2024-05-09T23:57:15.393Z,47.71
